sensor_id;sensor_type;location;lat;lon;timestamp;P1;durP1;ratioP1;P2;durP2;ratioP2
49029;SDS011;43337;52.070;4.508;2023-08-30T00:00:13;5.57;;;2.58;;
49029;SDS011;43337;52.070;4.508;2023-08-30T00:02:38;5.15;;;2.33;;
49029;SDS011;43337;52.070;4.508;2023-08-30T00:05:04;7.70;;;2.40;;
49029;SDS011;43337;52.070;4.508;2023-08-30T00:07:29;6.45;;;2.95;;
49029;SDS011;43337;52.070;4.508;2023-08-30T00:09:56;5.68;;;2.60;;
49029;SDS011;43337;52.070;4.508;2023-08-30T00:12:23;6.57;;;2.70;;
49029;SDS011;43337;52.070;4.508;2023-08-30T00:14:49;6.72;;;3.22;;
49029;SDS011;43337;52.070;4.508;2023-08-30T00:17:15;8.45;;;3.17;;
49029;SDS011;43337;52.070;4.508;2023-08-30T00:19:41;7.00;;;3.03;;
49029;SDS011;43337;52.070;4.508;2023-08-30T00:22:06;6.80;;;3.17;;
49029;SDS011;43337;52.070;4.508;2023-08-30T00:24:33;6.47;;;3.17;;
49029;SDS011;43337;52.070;4.508;2023-08-30T00:27:00;9.93;;;2.88;;
49029;SDS011;43337;52.070;4.508;2023-08-30T00:29:26;7.70;;;3.33;;
49029;SDS011;43337;52.070;4.508;2023-08-30T00:31:51;7.78;;;3.30;;
49029;SDS011;43337;52.070;4.508;2023-08-30T00:34:17;6.82;;;3.20;;
49029;SDS011;43337;52.070;4.508;2023-08-30T00:36:42;9.02;;;3.50;;
49029;SDS011;43337;52.070;4.508;2023-08-30T00:39:09;6.32;;;3.25;;
49029;SDS011;43337;52.070;4.508;2023-08-30T00:41:34;9.18;;;4.07;;
49029;SDS011;43337;52.070;4.508;2023-08-30T00:44:00;7.15;;;3.20;;
49029;SDS011;43337;52.070;4.508;2023-08-30T00:46:26;11.73;;;4.05;;
49029;SDS011;43337;52.070;4.508;2023-08-30T00:48:52;8.75;;;3.67;;
49029;SDS011;43337;52.070;4.508;2023-08-30T00:51:18;7.85;;;3.55;;
49029;SDS011;43337;52.070;4.508;2023-08-30T00:53:43;7.18;;;3.53;;
49029;SDS011;43337;52.070;4.508;2023-08-30T00:56:09;8.02;;;3.30;;
49029;SDS011;43337;52.070;4.508;2023-08-30T00:58:35;10.73;;;3.83;;
49029;SDS011;43337;52.070;4.508;2023-08-30T01:01:03;8.63;;;3.63;;
49029;SDS011;43337;52.070;4.508;2023-08-30T01:03:32;8.20;;;3.95;;
49029;SDS011;43337;52.070;4.508;2023-08-30T01:05:57;9.25;;;3.58;;
49029;SDS011;43337;52.070;4.508;2023-08-30T01:08:23;9.07;;;3.72;;
49029;SDS011;43337;52.070;4.508;2023-08-30T01:13:33;12.07;;;4.18;;
49029;SDS011;43337;52.070;4.508;2023-08-30T01:16:05;8.55;;;3.38;;
49029;SDS011;43337;52.070;4.508;2023-08-30T01:18:32;7.68;;;3.45;;
49029;SDS011;43337;52.070;4.508;2023-08-30T01:21:01;7.22;;;3.53;;
49029;SDS011;43337;52.070;4.508;2023-08-30T01:23:48;8.75;;;4.05;;
49029;SDS011;43337;52.070;4.508;2023-08-30T01:29:12;7.95;;;4.15;;
49029;SDS011;43337;52.070;4.508;2023-08-30T01:31:40;10.52;;;4.20;;
49029;SDS011;43337;52.070;4.508;2023-08-30T01:34:06;11.75;;;3.70;;
49029;SDS011;43337;52.070;4.508;2023-08-30T01:36:32;10.32;;;4.18;;
49029;SDS011;43337;52.070;4.508;2023-08-30T01:38:58;9.52;;;3.67;;
49029;SDS011;43337;52.070;4.508;2023-08-30T01:41:25;11.10;;;4.38;;
49029;SDS011;43337;52.070;4.508;2023-08-30T01:43:53;10.20;;;3.90;;
49029;SDS011;43337;52.070;4.508;2023-08-30T01:46:20;10.75;;;4.35;;
49029;SDS011;43337;52.070;4.508;2023-08-30T01:48:47;12.35;;;4.68;;
49029;SDS011;43337;52.070;4.508;2023-08-30T01:51:14;9.32;;;4.35;;
49029;SDS011;43337;52.070;4.508;2023-08-30T01:53:42;10.63;;;4.32;;
49029;SDS011;43337;52.070;4.508;2023-08-30T01:56:11;10.77;;;4.88;;
49029;SDS011;43337;52.070;4.508;2023-08-30T01:58:36;12.15;;;5.38;;
49029;SDS011;43337;52.070;4.508;2023-08-30T02:01:02;12.50;;;4.90;;
49029;SDS011;43337;52.070;4.508;2023-08-30T02:03:27;13.68;;;5.28;;
49029;SDS011;43337;52.070;4.508;2023-08-30T02:08:45;9.80;;;5.13;;
49029;SDS011;43337;52.070;4.508;2023-08-30T02:11:19;13.50;;;5.57;;
49029;SDS011;43337;52.070;4.508;2023-08-30T02:13:48;12.55;;;5.22;;
49029;SDS011;43337;52.070;4.508;2023-08-30T02:16:17;10.98;;;5.20;;
49029;SDS011;43337;52.070;4.508;2023-08-30T02:18:44;16.05;;;5.55;;
49029;SDS011;43337;52.070;4.508;2023-08-30T02:21:10;9.13;;;4.43;;
49029;SDS011;43337;52.070;4.508;2023-08-30T02:23:36;10.05;;;4.18;;
49029;SDS011;43337;52.070;4.508;2023-08-30T02:26:01;12.40;;;4.88;;
49029;SDS011;43337;52.070;4.508;2023-08-30T02:28:28;11.30;;;4.35;;
49029;SDS011;43337;52.070;4.508;2023-08-30T02:30:53;7.32;;;3.88;;
49029;SDS011;43337;52.070;4.508;2023-08-30T02:33:19;12.00;;;4.95;;
49029;SDS011;43337;52.070;4.508;2023-08-30T02:35:45;8.90;;;4.13;;
49029;SDS011;43337;52.070;4.508;2023-08-30T02:38:11;9.27;;;4.07;;
49029;SDS011;43337;52.070;4.508;2023-08-30T02:40:36;11.23;;;3.95;;
49029;SDS011;43337;52.070;4.508;2023-08-30T02:43:01;11.52;;;4.45;;
49029;SDS011;43337;52.070;4.508;2023-08-30T02:45:27;10.68;;;4.53;;
49029;SDS011;43337;52.070;4.508;2023-08-30T02:47:54;9.35;;;4.38;;
49029;SDS011;43337;52.070;4.508;2023-08-30T02:50:21;8.40;;;4.38;;
49029;SDS011;43337;52.070;4.508;2023-08-30T02:52:47;8.88;;;3.88;;
49029;SDS011;43337;52.070;4.508;2023-08-30T02:55:13;12.43;;;4.82;;
49029;SDS011;43337;52.070;4.508;2023-08-30T02:57:41;11.45;;;4.72;;
49029;SDS011;43337;52.070;4.508;2023-08-30T03:00:06;11.45;;;4.30;;
49029;SDS011;43337;52.070;4.508;2023-08-30T03:02:33;9.85;;;4.35;;
49029;SDS011;43337;52.070;4.508;2023-08-30T03:04:59;8.80;;;4.28;;
49029;SDS011;43337;52.070;4.508;2023-08-30T03:07:24;9.55;;;5.70;;
49029;SDS011;43337;52.070;4.508;2023-08-30T03:09:53;14.50;;;5.45;;
49029;SDS011;43337;52.070;4.508;2023-08-30T03:12:18;12.13;;;5.25;;
49029;SDS011;43337;52.070;4.508;2023-08-30T03:14:44;15.23;;;5.85;;
49029;SDS011;43337;52.070;4.508;2023-08-30T03:17:09;11.00;;;4.82;;
49029;SDS011;43337;52.070;4.508;2023-08-30T03:19:35;10.55;;;5.13;;
49029;SDS011;43337;52.070;4.508;2023-08-30T03:22:01;11.25;;;4.90;;
49029;SDS011;43337;52.070;4.508;2023-08-30T03:24:27;13.07;;;5.45;;
49029;SDS011;43337;52.070;4.508;2023-08-30T03:26:52;10.05;;;4.80;;
49029;SDS011;43337;52.070;4.508;2023-08-30T03:29:18;10.40;;;5.13;;
49029;SDS011;43337;52.070;4.508;2023-08-30T03:31:44;13.05;;;5.60;;
49029;SDS011;43337;52.070;4.508;2023-08-30T03:34:10;12.45;;;5.47;;
49029;SDS011;43337;52.070;4.508;2023-08-30T03:36:37;11.15;;;5.93;;
49029;SDS011;43337;52.070;4.508;2023-08-30T03:39:03;14.38;;;5.82;;
49029;SDS011;43337;52.070;4.508;2023-08-30T03:41:28;11.95;;;5.88;;
49029;SDS011;43337;52.070;4.508;2023-08-30T03:43:54;12.30;;;6.45;;
49029;SDS011;43337;52.070;4.508;2023-08-30T03:46:19;11.90;;;5.75;;
49029;SDS011;43337;52.070;4.508;2023-08-30T03:48:45;10.43;;;5.75;;
49029;SDS011;43337;52.070;4.508;2023-08-30T03:51:10;12.13;;;5.35;;
49029;SDS011;43337;52.070;4.508;2023-08-30T03:53:35;11.82;;;5.90;;
49029;SDS011;43337;52.070;4.508;2023-08-30T03:56:01;13.48;;;5.72;;
49029;SDS011;43337;52.070;4.508;2023-08-30T03:58:28;13.10;;;6.00;;
49029;SDS011;43337;52.070;4.508;2023-08-30T04:00:54;13.30;;;6.05;;
49029;SDS011;43337;52.070;4.508;2023-08-30T04:03:19;11.18;;;5.10;;
49029;SDS011;43337;52.070;4.508;2023-08-30T04:05:45;14.27;;;6.05;;
49029;SDS011;43337;52.070;4.508;2023-08-30T04:08:10;16.48;;;6.78;;
49029;SDS011;43337;52.070;4.508;2023-08-30T04:10:40;12.80;;;6.13;;
49029;SDS011;43337;52.070;4.508;2023-08-30T04:13:07;12.48;;;5.90;;
49029;SDS011;43337;52.070;4.508;2023-08-30T04:15:36;12.27;;;5.97;;
49029;SDS011;43337;52.070;4.508;2023-08-30T04:18:03;14.73;;;6.68;;
49029;SDS011;43337;52.070;4.508;2023-08-30T04:20:30;14.23;;;6.03;;
49029;SDS011;43337;52.070;4.508;2023-08-30T04:22:55;13.40;;;5.90;;
49029;SDS011;43337;52.070;4.508;2023-08-30T04:25:22;17.90;;;6.60;;
49029;SDS011;43337;52.070;4.508;2023-08-30T04:27:47;14.32;;;6.53;;
49029;SDS011;43337;52.070;4.508;2023-08-30T04:30:13;14.13;;;7.38;;
49029;SDS011;43337;52.070;4.508;2023-08-30T04:32:39;14.43;;;7.03;;
49029;SDS011;43337;52.070;4.508;2023-08-30T04:35:05;15.25;;;6.40;;
49029;SDS011;43337;52.070;4.508;2023-08-30T04:37:30;13.68;;;6.38;;
49029;SDS011;43337;52.070;4.508;2023-08-30T04:39:59;14.13;;;5.93;;
49029;SDS011;43337;52.070;4.508;2023-08-30T04:42:24;13.25;;;5.90;;
49029;SDS011;43337;52.070;4.508;2023-08-30T04:44:50;12.80;;;5.90;;
49029;SDS011;43337;52.070;4.508;2023-08-30T04:47:16;14.32;;;6.13;;
49029;SDS011;43337;52.070;4.508;2023-08-30T04:49:42;11.95;;;5.90;;
49029;SDS011;43337;52.070;4.508;2023-08-30T04:52:07;13.73;;;5.85;;
49029;SDS011;43337;52.070;4.508;2023-08-30T04:54:32;13.55;;;5.93;;
49029;SDS011;43337;52.070;4.508;2023-08-30T04:56:58;11.23;;;5.68;;
49029;SDS011;43337;52.070;4.508;2023-08-30T04:59:23;13.23;;;7.47;;
49029;SDS011;43337;52.070;4.508;2023-08-30T05:01:49;13.73;;;6.80;;
49029;SDS011;43337;52.070;4.508;2023-08-30T05:04:16;14.80;;;6.85;;
49029;SDS011;43337;52.070;4.508;2023-08-30T05:06:41;17.42;;;7.10;;
49029;SDS011;43337;52.070;4.508;2023-08-30T05:09:07;12.93;;;6.90;;
49029;SDS011;43337;52.070;4.508;2023-08-30T05:11:32;13.85;;;6.93;;
49029;SDS011;43337;52.070;4.508;2023-08-30T05:14:00;19.20;;;7.43;;
49029;SDS011;43337;52.070;4.508;2023-08-30T05:16:25;14.43;;;6.75;;
49029;SDS011;43337;52.070;4.508;2023-08-30T05:18:51;14.15;;;7.22;;
49029;SDS011;43337;52.070;4.508;2023-08-30T05:21:16;16.38;;;7.97;;
49029;SDS011;43337;52.070;4.508;2023-08-30T05:23:41;15.52;;;7.63;;
49029;SDS011;43337;52.070;4.508;2023-08-30T05:26:08;17.40;;;8.00;;
49029;SDS011;43337;52.070;4.508;2023-08-30T05:28:39;18.85;;;7.93;;
49029;SDS011;43337;52.070;4.508;2023-08-30T05:31:04;19.67;;;7.80;;
49029;SDS011;43337;52.070;4.508;2023-08-30T05:33:31;16.70;;;8.65;;
49029;SDS011;43337;52.070;4.508;2023-08-30T05:35:56;16.92;;;8.10;;
49029;SDS011;43337;52.070;4.508;2023-08-30T05:38:21;19.15;;;9.30;;
49029;SDS011;43337;52.070;4.508;2023-08-30T05:40:48;18.38;;;9.73;;
49029;SDS011;43337;52.070;4.508;2023-08-30T05:43:14;20.05;;;8.57;;
49029;SDS011;43337;52.070;4.508;2023-08-30T05:45:41;25.55;;;9.57;;
49029;SDS011;43337;52.070;4.508;2023-08-30T05:48:06;22.08;;;9.32;;
49029;SDS011;43337;52.070;4.508;2023-08-30T05:50:31;22.80;;;10.60;;
49029;SDS011;43337;52.070;4.508;2023-08-30T05:52:57;22.15;;;10.43;;
49029;SDS011;43337;52.070;4.508;2023-08-30T05:55:22;25.75;;;11.27;;
49029;SDS011;43337;52.070;4.508;2023-08-30T05:57:48;22.33;;;10.95;;
49029;SDS011;43337;52.070;4.508;2023-08-30T06:00:13;23.48;;;10.75;;
49029;SDS011;43337;52.070;4.508;2023-08-30T06:02:40;24.60;;;10.15;;
49029;SDS011;43337;52.070;4.508;2023-08-30T06:05:06;21.08;;;11.50;;
49029;SDS011;43337;52.070;4.508;2023-08-30T06:07:32;26.73;;;12.30;;
49029;SDS011;43337;52.070;4.508;2023-08-30T06:09:57;28.52;;;11.98;;
49029;SDS011;43337;52.070;4.508;2023-08-30T06:12:23;25.95;;;11.32;;
49029;SDS011;43337;52.070;4.508;2023-08-30T06:14:50;24.00;;;10.77;;
49029;SDS011;43337;52.070;4.508;2023-08-30T06:17:17;27.65;;;11.68;;
49029;SDS011;43337;52.070;4.508;2023-08-30T06:19:44;24.75;;;12.73;;
49029;SDS011;43337;52.070;4.508;2023-08-30T06:22:09;24.95;;;11.60;;
49029;SDS011;43337;52.070;4.508;2023-08-30T06:24:35;24.45;;;10.77;;
49029;SDS011;43337;52.070;4.508;2023-08-30T06:27:00;24.00;;;11.18;;
49029;SDS011;43337;52.070;4.508;2023-08-30T06:29:25;23.10;;;10.32;;
49029;SDS011;43337;52.070;4.508;2023-08-30T06:31:51;23.33;;;11.77;;
49029;SDS011;43337;52.070;4.508;2023-08-30T06:34:16;22.75;;;11.63;;
49029;SDS011;43337;52.070;4.508;2023-08-30T06:36:42;21.20;;;10.05;;
49029;SDS011;43337;52.070;4.508;2023-08-30T06:39:07;22.17;;;10.80;;
49029;SDS011;43337;52.070;4.508;2023-08-30T06:41:32;20.83;;;10.05;;
49029;SDS011;43337;52.070;4.508;2023-08-30T06:43:58;24.13;;;11.38;;
49029;SDS011;43337;52.070;4.508;2023-08-30T06:46:23;21.95;;;10.27;;
49029;SDS011;43337;52.070;4.508;2023-08-30T06:48:49;22.08;;;9.73;;
49029;SDS011;43337;52.070;4.508;2023-08-30T06:51:14;20.92;;;10.45;;
49029;SDS011;43337;52.070;4.508;2023-08-30T06:53:39;20.40;;;10.07;;
49029;SDS011;43337;52.070;4.508;2023-08-30T06:56:05;23.83;;;11.00;;
49029;SDS011;43337;52.070;4.508;2023-08-30T06:58:30;20.33;;;9.60;;
49029;SDS011;43337;52.070;4.508;2023-08-30T07:00:57;18.35;;;8.32;;
49029;SDS011;43337;52.070;4.508;2023-08-30T07:03:22;16.42;;;7.90;;
49029;SDS011;43337;52.070;4.508;2023-08-30T07:05:48;16.48;;;8.30;;
49029;SDS011;43337;52.070;4.508;2023-08-30T07:08:16;15.82;;;8.60;;
49029;SDS011;43337;52.070;4.508;2023-08-30T07:10:41;15.88;;;9.05;;
49029;SDS011;43337;52.070;4.508;2023-08-30T07:13:07;16.63;;;8.48;;
49029;SDS011;43337;52.070;4.508;2023-08-30T07:15:36;17.50;;;9.18;;
49029;SDS011;43337;52.070;4.508;2023-08-30T07:18:01;17.10;;;9.07;;
49029;SDS011;43337;52.070;4.508;2023-08-30T07:20:28;14.27;;;7.88;;
49029;SDS011;43337;52.070;4.508;2023-08-30T07:22:54;16.75;;;9.38;;
49029;SDS011;43337;52.070;4.508;2023-08-30T07:25:19;16.08;;;8.77;;
49029;SDS011;43337;52.070;4.508;2023-08-30T07:27:44;15.45;;;8.75;;
49029;SDS011;43337;52.070;4.508;2023-08-30T07:30:10;15.45;;;8.32;;
49029;SDS011;43337;52.070;4.508;2023-08-30T07:32:35;17.60;;;7.97;;
49029;SDS011;43337;52.070;4.508;2023-08-30T07:35:03;17.17;;;8.00;;
49029;SDS011;43337;52.070;4.508;2023-08-30T07:37:29;14.75;;;7.82;;
49029;SDS011;43337;52.070;4.508;2023-08-30T07:39:55;15.70;;;8.73;;
49029;SDS011;43337;52.070;4.508;2023-08-30T07:42:20;15.20;;;8.02;;
49029;SDS011;43337;52.070;4.508;2023-08-30T07:44:45;13.68;;;8.05;;
49029;SDS011;43337;52.070;4.508;2023-08-30T07:47:11;24.73;;;8.40;;
49029;SDS011;43337;52.070;4.508;2023-08-30T07:49:36;13.57;;;6.88;;
49029;SDS011;43337;52.070;4.508;2023-08-30T07:52:02;12.50;;;7.15;;
49029;SDS011;43337;52.070;4.508;2023-08-30T07:54:28;14.85;;;7.03;;
49029;SDS011;43337;52.070;4.508;2023-08-30T07:56:53;13.70;;;7.38;;
49029;SDS011;43337;52.070;4.508;2023-08-30T07:59:18;12.02;;;7.05;;
49029;SDS011;43337;52.070;4.508;2023-08-30T08:01:45;12.95;;;6.75;;
49029;SDS011;43337;52.070;4.508;2023-08-30T08:04:11;12.02;;;6.78;;
49029;SDS011;43337;52.070;4.508;2023-08-30T08:06:36;12.70;;;7.35;;
49029;SDS011;43337;52.070;4.508;2023-08-30T08:09:01;12.23;;;6.75;;
49029;SDS011;43337;52.070;4.508;2023-08-30T08:11:27;13.82;;;7.60;;
49029;SDS011;43337;52.070;4.508;2023-08-30T08:13:52;12.00;;;7.70;;
49029;SDS011;43337;52.070;4.508;2023-08-30T08:16:18;12.85;;;7.40;;
49029;SDS011;43337;52.070;4.508;2023-08-30T08:18:43;14.98;;;8.60;;
49029;SDS011;43337;52.070;4.508;2023-08-30T08:21:08;14.95;;;8.75;;
49029;SDS011;43337;52.070;4.508;2023-08-30T08:23:34;16.08;;;8.77;;
49029;SDS011;43337;52.070;4.508;2023-08-30T08:26:00;16.15;;;8.48;;
49029;SDS011;43337;52.070;4.508;2023-08-30T08:28:26;14.60;;;8.77;;
49029;SDS011;43337;52.070;4.508;2023-08-30T08:30:51;15.95;;;9.93;;
49029;SDS011;43337;52.070;4.508;2023-08-30T08:33:17;16.65;;;10.00;;
49029;SDS011;43337;52.070;4.508;2023-08-30T08:35:43;17.52;;;10.40;;
49029;SDS011;43337;52.070;4.508;2023-08-30T08:38:09;17.20;;;10.40;;
49029;SDS011;43337;52.070;4.508;2023-08-30T08:40:38;15.23;;;9.57;;
49029;SDS011;43337;52.070;4.508;2023-08-30T08:43:06;13.57;;;8.13;;
49029;SDS011;43337;52.070;4.508;2023-08-30T08:45:35;12.07;;;8.35;;
49029;SDS011;43337;52.070;4.508;2023-08-30T08:48:03;11.52;;;6.50;;
49029;SDS011;43337;52.070;4.508;2023-08-30T08:50:29;11.68;;;6.50;;
49029;SDS011;43337;52.070;4.508;2023-08-30T08:52:55;9.68;;;5.97;;
49029;SDS011;43337;52.070;4.508;2023-08-30T08:55:21;7.93;;;3.95;;
49029;SDS011;43337;52.070;4.508;2023-08-30T08:57:47;7.82;;;3.20;;
49029;SDS011;43337;52.070;4.508;2023-08-30T09:00:13;6.13;;;3.20;;
49029;SDS011;43337;52.070;4.508;2023-08-30T09:02:39;6.60;;;2.78;;
49029;SDS011;43337;52.070;4.508;2023-08-30T09:05:07;6.90;;;3.50;;
49029;SDS011;43337;52.070;4.508;2023-08-30T09:07:32;7.53;;;2.78;;
49029;SDS011;43337;52.070;4.508;2023-08-30T09:09:59;9.77;;;2.92;;
49029;SDS011;43337;52.070;4.508;2023-08-30T09:12:25;8.50;;;2.88;;
49029;SDS011;43337;52.070;4.508;2023-08-30T09:14:54;6.20;;;2.40;;
49029;SDS011;43337;52.070;4.508;2023-08-30T09:17:22;6.72;;;2.65;;
49029;SDS011;43337;52.070;4.508;2023-08-30T09:19:48;4.82;;;2.42;;
49029;SDS011;43337;52.070;4.508;2023-08-30T09:22:16;8.00;;;2.55;;
49029;SDS011;43337;52.070;4.508;2023-08-30T09:24:42;9.88;;;3.88;;
49029;SDS011;43337;52.070;4.508;2023-08-30T09:27:07;6.88;;;2.35;;
49029;SDS011;43337;52.070;4.508;2023-08-30T09:29:33;7.18;;;2.10;;
49029;SDS011;43337;52.070;4.508;2023-08-30T09:31:58;7.00;;;2.70;;
49029;SDS011;43337;52.070;4.508;2023-08-30T09:34:26;7.78;;;2.78;;
49029;SDS011;43337;52.070;4.508;2023-08-30T09:36:51;11.20;;;2.90;;
49029;SDS011;43337;52.070;4.508;2023-08-30T09:39:18;9.18;;;2.17;;
49029;SDS011;43337;52.070;4.508;2023-08-30T09:41:47;5.43;;;1.80;;
49029;SDS011;43337;52.070;4.508;2023-08-30T09:44:15;9.02;;;2.35;;
49029;SDS011;43337;52.070;4.508;2023-08-30T09:46:45;8.57;;;1.83;;
49029;SDS011;43337;52.070;4.508;2023-08-30T09:49:15;4.75;;;1.70;;
49029;SDS011;43337;52.070;4.508;2023-08-30T09:51:44;6.50;;;1.95;;
49029;SDS011;43337;52.070;4.508;2023-08-30T09:54:15;7.40;;;2.17;;
49029;SDS011;43337;52.070;4.508;2023-08-30T09:56:43;9.88;;;2.15;;
49029;SDS011;43337;52.070;4.508;2023-08-30T09:59:10;6.70;;;1.88;;
49029;SDS011;43337;52.070;4.508;2023-08-30T10:01:36;7.97;;;1.90;;
49029;SDS011;43337;52.070;4.508;2023-08-30T10:04:02;8.25;;;2.33;;
49029;SDS011;43337;52.070;4.508;2023-08-30T10:06:29;7.72;;;1.70;;
49029;SDS011;43337;52.070;4.508;2023-08-30T10:08:55;8.95;;;2.00;;
49029;SDS011;43337;52.070;4.508;2023-08-30T10:11:21;9.95;;;1.58;;
49029;SDS011;43337;52.070;4.508;2023-08-30T10:13:49;7.13;;;1.73;;
49029;SDS011;43337;52.070;4.508;2023-08-30T10:16:18;14.45;;;2.60;;
49029;SDS011;43337;52.070;4.508;2023-08-30T10:18:49;9.30;;;1.98;;
49029;SDS011;43337;52.070;4.508;2023-08-30T10:21:18;9.07;;;2.20;;
49029;SDS011;43337;52.070;4.508;2023-08-30T10:23:44;7.07;;;1.90;;
49029;SDS011;43337;52.070;4.508;2023-08-30T10:26:14;6.43;;;1.75;;
49029;SDS011;43337;52.070;4.508;2023-08-30T10:28:40;5.43;;;1.63;;
49029;SDS011;43337;52.070;4.508;2023-08-30T10:31:07;8.95;;;2.00;;
49029;SDS011;43337;52.070;4.508;2023-08-30T10:33:43;10.00;;;2.10;;
49029;SDS011;43337;52.070;4.508;2023-08-30T10:36:19;10.20;;;2.50;;
49029;SDS011;43337;52.070;4.508;2023-08-30T10:38:48;6.78;;;2.00;;
49029;SDS011;43337;52.070;4.508;2023-08-30T10:41:26;10.65;;;2.33;;
49029;SDS011;43337;52.070;4.508;2023-08-30T10:43:52;9.32;;;2.28;;
49029;SDS011;43337;52.070;4.508;2023-08-30T10:46:33;8.55;;;1.40;;
49029;SDS011;43337;52.070;4.508;2023-08-30T10:49:13;9.13;;;1.98;;
49029;SDS011;43337;52.070;4.508;2023-08-30T10:51:42;10.60;;;1.70;;
49029;SDS011;43337;52.070;4.508;2023-08-30T10:54:16;7.65;;;1.38;;
49029;SDS011;43337;52.070;4.508;2023-08-30T10:56:49;9.40;;;1.30;;
49029;SDS011;43337;52.070;4.508;2023-08-30T10:59:20;12.07;;;1.58;;
49029;SDS011;43337;52.070;4.508;2023-08-30T11:01:47;11.57;;;2.10;;
49029;SDS011;43337;52.070;4.508;2023-08-30T11:04:14;7.35;;;1.75;;
49029;SDS011;43337;52.070;4.508;2023-08-30T11:06:42;6.28;;;1.35;;
49029;SDS011;43337;52.070;4.508;2023-08-30T11:09:09;5.80;;;1.52;;
49029;SDS011;43337;52.070;4.508;2023-08-30T11:11:36;4.97;;;1.52;;
49029;SDS011;43337;52.070;4.508;2023-08-30T11:14:08;7.68;;;1.38;;
49029;SDS011;43337;52.070;4.508;2023-08-30T11:16:36;7.53;;;1.33;;
49029;SDS011;43337;52.070;4.508;2023-08-30T11:19:05;8.70;;;2.28;;
49029;SDS011;43337;52.070;4.508;2023-08-30T11:21:34;5.03;;;1.42;;
49029;SDS011;43337;52.070;4.508;2023-08-30T11:24:01;11.90;;;2.72;;
49029;SDS011;43337;52.070;4.508;2023-08-30T11:26:28;8.05;;;2.05;;
49029;SDS011;43337;52.070;4.508;2023-08-30T11:28:54;7.72;;;1.42;;
49029;SDS011;43337;52.070;4.508;2023-08-30T11:31:24;7.10;;;1.52;;
49029;SDS011;43337;52.070;4.508;2023-08-30T11:33:53;6.13;;;1.52;;
49029;SDS011;43337;52.070;4.508;2023-08-30T11:36:23;6.43;;;1.38;;
49029;SDS011;43337;52.070;4.508;2023-08-30T11:38:52;7.05;;;1.33;;
49029;SDS011;43337;52.070;4.508;2023-08-30T11:41:19;9.40;;;1.80;;
49029;SDS011;43337;52.070;4.508;2023-08-30T11:43:46;8.20;;;1.92;;
49029;SDS011;43337;52.070;4.508;2023-08-30T11:46:12;5.47;;;1.52;;
49029;SDS011;43337;52.070;4.508;2023-08-30T11:48:39;9.32;;;2.10;;
49029;SDS011;43337;52.070;4.508;2023-08-30T11:51:05;5.68;;;1.15;;
49029;SDS011;43337;52.070;4.508;2023-08-30T11:53:32;6.00;;;1.45;;
49029;SDS011;43337;52.070;4.508;2023-08-30T11:55:58;7.18;;;1.55;;
49029;SDS011;43337;52.070;4.508;2023-08-30T11:58:23;8.45;;;1.65;;
49029;SDS011;43337;52.070;4.508;2023-08-30T12:00:49;6.68;;;1.38;;
49029;SDS011;43337;52.070;4.508;2023-08-30T12:03:16;5.13;;;1.45;;
49029;SDS011;43337;52.070;4.508;2023-08-30T12:05:48;5.57;;;1.63;;
49029;SDS011;43337;52.070;4.508;2023-08-30T12:08:48;6.60;;;1.77;;
49029;SDS011;43337;52.070;4.508;2023-08-30T12:11:16;5.32;;;1.33;;
49029;SDS011;43337;52.070;4.508;2023-08-30T12:13:43;6.78;;;1.48;;
49029;SDS011;43337;52.070;4.508;2023-08-30T12:16:08;6.88;;;1.40;;
49029;SDS011;43337;52.070;4.508;2023-08-30T12:18:42;4.53;;;1.70;;
49029;SDS011;43337;52.070;4.508;2023-08-30T12:21:07;9.18;;;1.70;;
49029;SDS011;43337;52.070;4.508;2023-08-30T12:23:33;10.70;;;2.45;;
49029;SDS011;43337;52.070;4.508;2023-08-30T12:26:00;14.20;;;2.33;;
49029;SDS011;43337;52.070;4.508;2023-08-30T12:28:30;7.68;;;1.70;;
49029;SDS011;43337;52.070;4.508;2023-08-30T12:30:56;5.80;;;1.60;;
49029;SDS011;43337;52.070;4.508;2023-08-30T12:33:22;6.45;;;2.10;;
49029;SDS011;43337;52.070;4.508;2023-08-30T12:35:56;8.63;;;1.63;;
49029;SDS011;43337;52.070;4.508;2023-08-30T12:38:23;5.97;;;1.58;;
49029;SDS011;43337;52.070;4.508;2023-08-30T12:40:49;9.13;;;3.13;;
49029;SDS011;43337;52.070;4.508;2023-08-30T12:43:16;10.50;;;2.20;;
49029;SDS011;43337;52.070;4.508;2023-08-30T12:45:42;11.05;;;2.08;;
49029;SDS011;43337;52.070;4.508;2023-08-30T12:48:09;10.25;;;2.53;;
49029;SDS011;43337;52.070;4.508;2023-08-30T12:50:36;8.15;;;2.60;;
49029;SDS011;43337;52.070;4.508;2023-08-30T12:53:02;8.02;;;2.45;;
49029;SDS011;43337;52.070;4.508;2023-08-30T12:55:28;7.53;;;2.22;;
49029;SDS011;43337;52.070;4.508;2023-08-30T12:57:54;5.68;;;2.13;;
49029;SDS011;43337;52.070;4.508;2023-08-30T13:00:19;7.95;;;2.53;;
49029;SDS011;43337;52.070;4.508;2023-08-30T13:02:45;11.23;;;2.40;;
49029;SDS011;43337;52.070;4.508;2023-08-30T13:05:10;6.28;;;2.17;;
49029;SDS011;43337;52.070;4.508;2023-08-30T13:07:36;9.52;;;2.58;;
49029;SDS011;43337;52.070;4.508;2023-08-30T13:10:01;9.60;;;2.40;;
49029;SDS011;43337;52.070;4.508;2023-08-30T13:12:27;5.55;;;1.88;;
49029;SDS011;43337;52.070;4.508;2023-08-30T13:14:52;6.80;;;2.00;;
49029;SDS011;43337;52.070;4.508;2023-08-30T13:17:18;5.72;;;2.05;;
49029;SDS011;43337;52.070;4.508;2023-08-30T13:19:43;6.32;;;2.55;;
49029;SDS011;43337;52.070;4.508;2023-08-30T13:22:09;4.97;;;1.95;;
49029;SDS011;43337;52.070;4.508;2023-08-30T13:24:35;6.53;;;2.33;;
49029;SDS011;43337;52.070;4.508;2023-08-30T13:27:00;7.72;;;2.00;;
49029;SDS011;43337;52.070;4.508;2023-08-30T13:29:26;6.47;;;1.70;;
49029;SDS011;43337;52.070;4.508;2023-08-30T13:31:51;6.57;;;1.80;;
49029;SDS011;43337;52.070;4.508;2023-08-30T13:34:16;5.85;;;1.50;;
49029;SDS011;43337;52.070;4.508;2023-08-30T13:36:42;7.20;;;2.00;;
49029;SDS011;43337;52.070;4.508;2023-08-30T13:39:07;10.23;;;2.65;;
49029;SDS011;43337;52.070;4.508;2023-08-30T13:41:32;7.80;;;1.60;;
49029;SDS011;43337;52.070;4.508;2023-08-30T13:43:59;6.90;;;1.98;;
49029;SDS011;43337;52.070;4.508;2023-08-30T13:46:24;8.25;;;2.33;;
49029;SDS011;43337;52.070;4.508;2023-08-30T13:48:49;6.00;;;1.73;;
49029;SDS011;43337;52.070;4.508;2023-08-30T13:51:20;5.72;;;1.70;;
49029;SDS011;43337;52.070;4.508;2023-08-30T13:53:49;6.80;;;1.70;;
49029;SDS011;43337;52.070;4.508;2023-08-30T13:56:15;7.25;;;1.45;;
49029;SDS011;43337;52.070;4.508;2023-08-30T13:58:40;9.45;;;2.22;;
49029;SDS011;43337;52.070;4.508;2023-08-30T14:01:06;6.28;;;1.30;;
49029;SDS011;43337;52.070;4.508;2023-08-30T14:03:31;8.27;;;2.40;;
49029;SDS011;43337;52.070;4.508;2023-08-30T14:05:57;8.02;;;1.67;;
49029;SDS011;43337;52.070;4.508;2023-08-30T14:08:23;6.15;;;1.58;;
49029;SDS011;43337;52.070;4.508;2023-08-30T14:10:48;6.93;;;1.55;;
49029;SDS011;43337;52.070;4.508;2023-08-30T14:13:14;6.45;;;1.63;;
49029;SDS011;43337;52.070;4.508;2023-08-30T14:15:40;6.75;;;1.95;;
49029;SDS011;43337;52.070;4.508;2023-08-30T14:18:06;8.15;;;1.92;;
49029;SDS011;43337;52.070;4.508;2023-08-30T14:20:31;7.15;;;1.85;;
49029;SDS011;43337;52.070;4.508;2023-08-30T14:22:57;8.23;;;1.80;;
49029;SDS011;43337;52.070;4.508;2023-08-30T14:25:22;6.60;;;1.55;;
49029;SDS011;43337;52.070;4.508;2023-08-30T14:27:48;5.65;;;1.52;;
49029;SDS011;43337;52.070;4.508;2023-08-30T14:30:13;7.63;;;2.00;;
49029;SDS011;43337;52.070;4.508;2023-08-30T14:32:38;3.00;;;1.30;;
49029;SDS011;43337;52.070;4.508;2023-08-30T14:35:04;7.20;;;1.50;;
49029;SDS011;43337;52.070;4.508;2023-08-30T14:37:29;7.43;;;1.35;;
49029;SDS011;43337;52.070;4.508;2023-08-30T14:39:55;8.20;;;2.75;;
49029;SDS011;43337;52.070;4.508;2023-08-30T14:42:20;4.22;;;1.45;;
49029;SDS011;43337;52.070;4.508;2023-08-30T14:44:49;9.50;;;3.03;;